createdAt,value
2019-03-16T00:00:55.247Z,5.97
2019-03-16T00:03:24.934Z,6.00
2019-03-16T00:05:54.551Z,5.43
2019-03-16T00:08:24.321Z,6.10
2019-03-16T00:10:53.967Z,4.40
2019-03-16T00:13:23.711Z,4.47
2019-03-16T00:15:53.377Z,5.47
2019-03-16T00:18:23.093Z,6.22
2019-03-16T00:20:52.727Z,5.73
2019-03-16T00:23:22.412Z,6.87
2019-03-16T00:25:53.153Z,6.27
2019-03-16T00:28:22.807Z,6.35
2019-03-16T00:30:52.495Z,4.83
2019-03-16T00:33:22.194Z,5.83
2019-03-16T00:35:51.862Z,5.30
2019-03-16T00:38:23.468Z,4.93
2019-03-16T00:40:52.846Z,6.22
2019-03-16T00:43:22.562Z,4.77
2019-03-16T00:45:52.221Z,5.10
2019-03-16T00:48:22.060Z,4.47
2019-03-16T00:50:51.827Z,4.27
2019-03-16T00:53:22.072Z,5.77
2019-03-16T00:55:51.700Z,5.03
2019-03-16T00:58:22.487Z,4.87
2019-03-16T01:00:52.205Z,4.80
2019-03-16T01:03:21.836Z,4.10
2019-03-16T01:05:51.572Z,5.07
2019-03-16T01:08:22.345Z,4.43
2019-03-16T01:10:51.985Z,6.33
2019-03-16T01:13:21.635Z,5.63
2019-03-16T01:15:51.270Z,5.60
2019-03-16T01:18:21.962Z,5.23
2019-03-16T01:20:51.812Z,5.00
2019-03-16T01:23:21.460Z,4.90
2019-03-16T01:25:51.492Z,5.57
2019-03-16T01:28:21.139Z,5.40
2019-03-16T01:30:50.887Z,6.37
2019-03-16T01:33:20.529Z,5.70
2019-03-16T01:35:50.290Z,5.57
2019-03-16T01:38:19.929Z,6.47
2019-03-16T01:40:49.607Z,5.10
2019-03-16T01:43:19.417Z,5.33
2019-03-16T01:45:49.074Z,5.50
2019-03-16T01:48:18.728Z,5.70
2019-03-16T01:50:48.392Z,5.30
2019-03-16T01:53:18.402Z,5.03
2019-03-16T01:55:48.172Z,5.70
2019-03-16T01:58:17.871Z,5.73
2019-03-16T02:00:47.575Z,4.93
2019-03-16T02:03:17.238Z,5.30
2019-03-16T02:05:46.961Z,5.27
2019-03-16T02:08:16.849Z,6.17
2019-03-16T02:10:46.474Z,6.17
2019-03-16T02:13:16.302Z,5.70
2019-03-16T02:15:45.930Z,5.73
2019-03-16T02:18:15.618Z,5.43
2019-03-16T02:20:45.375Z,5.00
2019-03-16T02:23:15.319Z,4.70
2019-03-16T02:25:46.019Z,4.83
2019-03-16T02:28:15.744Z,5.33
2019-03-16T02:30:45.448Z,4.87
2019-03-16T02:33:15.101Z,5.73
2019-03-16T02:35:44.743Z,5.27
2019-03-16T02:38:14.398Z,6.10
2019-03-16T02:40:44.271Z,5.50
2019-03-16T02:43:13.905Z,5.27
2019-03-16T02:45:43.573Z,5.80
2019-03-16T02:48:13.327Z,4.67
2019-03-16T02:50:42.988Z,5.57
2019-03-16T02:53:12.669Z,5.30
2019-03-16T02:55:42.398Z,5.77
2019-03-16T02:58:12.046Z,5.03
2019-03-16T03:00:41.704Z,6.10
2019-03-16T03:03:28.073Z,6.45
2019-03-16T03:05:42.776Z,6.15
2019-03-16T03:08:12.416Z,5.23
2019-03-16T03:10:43.394Z,6.10
2019-03-16T03:13:14.165Z,4.90
2019-03-16T03:15:44.247Z,6.33
2019-03-16T03:18:14.057Z,5.83
2019-03-16T03:20:43.920Z,5.07
2019-03-16T03:23:13.927Z,4.93
2019-03-16T03:25:43.654Z,5.60
2019-03-16T03:28:13.291Z,6.07
2019-03-16T03:30:43.178Z,5.03
2019-03-16T03:33:13.209Z,5.85
2019-03-16T03:35:43.674Z,5.10
2019-03-16T03:38:13.437Z,5.67
2019-03-16T03:40:43.104Z,5.23
2019-03-16T03:43:12.742Z,4.90
2019-03-16T03:45:42.643Z,5.00
2019-03-16T03:48:12.320Z,5.60
2019-03-16T03:50:41.958Z,4.93
2019-03-16T03:53:11.642Z,5.33
2019-03-16T03:55:41.440Z,4.53
2019-03-16T03:58:11.118Z,4.63
2019-03-16T04:00:40.782Z,5.07
2019-03-16T04:03:10.592Z,4.67
2019-03-16T04:05:40.323Z,4.90
2019-03-16T04:08:10.248Z,4.50
2019-03-16T04:10:39.993Z,4.90
2019-03-16T04:13:09.766Z,5.27
2019-03-16T04:15:39.561Z,6.17
2019-03-16T04:18:09.663Z,6.23
2019-03-16T04:20:39.372Z,5.67
2019-03-16T04:23:09.086Z,5.50
2019-03-16T04:25:38.743Z,5.03
2019-03-16T04:28:08.402Z,5.37
2019-03-16T04:30:38.026Z,5.47
2019-03-16T04:33:07.727Z,4.97
2019-03-16T04:35:37.438Z,5.03
2019-03-16T04:38:07.096Z,5.23
2019-03-16T04:40:36.737Z,6.10
2019-03-16T04:43:06.444Z,5.13
2019-03-16T04:45:36.100Z,6.90
2019-03-16T04:48:05.755Z,5.43
2019-03-16T04:50:35.379Z,5.87
2019-03-16T04:53:05.034Z,5.13
2019-03-16T04:55:34.678Z,5.20
2019-03-16T04:58:04.440Z,4.93
2019-03-16T05:00:34.114Z,5.53
2019-03-16T05:03:03.791Z,4.70
2019-03-16T05:05:33.442Z,5.77
2019-03-16T05:08:03.100Z,5.33
2019-03-16T05:10:34.349Z,4.93
2019-03-16T05:13:04.235Z,6.03
2019-03-16T05:15:33.895Z,5.73
2019-03-16T05:18:03.549Z,5.10
2019-03-16T05:20:33.225Z,6.23
2019-03-16T05:23:02.938Z,4.93
2019-03-16T05:25:33.748Z,5.40
2019-03-16T05:28:03.397Z,4.20
2019-03-16T05:30:33.035Z,4.97
2019-03-16T05:33:02.707Z,4.90
2019-03-16T05:35:32.361Z,5.97
2019-03-16T05:38:02.017Z,5.97
2019-03-16T05:40:31.689Z,5.40
2019-03-16T05:43:01.418Z,5.70
2019-03-16T05:45:31.103Z,4.90
2019-03-16T05:48:00.813Z,4.97
2019-03-16T05:50:30.455Z,5.13
2019-03-16T05:53:00.149Z,5.80
2019-03-16T05:55:29.994Z,6.33
2019-03-16T05:57:59.650Z,5.23
2019-03-16T06:00:29.341Z,5.60
2019-03-16T06:02:59.112Z,6.40
2019-03-16T06:05:28.921Z,5.47
2019-03-16T06:07:58.602Z,5.47
2019-03-16T06:10:28.259Z,4.77
2019-03-16T06:12:57.977Z,5.13
2019-03-16T06:15:27.604Z,5.63
2019-03-16T06:17:57.258Z,6.27
2019-03-16T06:20:26.954Z,6.60
2019-03-16T06:22:56.578Z,5.90
2019-03-16T06:25:26.445Z,5.73
2019-03-16T06:27:56.059Z,6.23
2019-03-16T06:30:25.727Z,6.73
2019-03-16T06:32:55.374Z,6.33
2019-03-16T06:35:29.252Z,6.07
2019-03-16T06:37:56.398Z,5.60
2019-03-16T06:40:26.056Z,5.57
2019-03-16T06:42:55.685Z,5.67
2019-03-16T06:45:25.899Z,5.67
2019-03-16T06:47:55.599Z,6.10
2019-03-16T06:50:25.290Z,5.33
2019-03-16T06:52:54.971Z,5.80
2019-03-16T06:55:24.630Z,5.60
2019-03-16T06:57:54.337Z,6.27
2019-03-16T07:00:23.989Z,6.60
2019-03-16T07:02:53.715Z,4.97
2019-03-16T07:05:25.085Z,5.10
2019-03-16T07:07:54.737Z,5.83
2019-03-16T07:10:24.533Z,5.80
2019-03-16T07:12:54.291Z,5.37
2019-03-16T07:15:23.946Z,4.67
2019-03-16T07:17:53.598Z,5.43
2019-03-16T07:20:23.361Z,5.53
2019-03-16T07:22:53.089Z,4.70
2019-03-16T07:25:24.893Z,5.70
2019-03-16T07:27:54.578Z,4.50
2019-03-16T07:30:24.236Z,6.17
2019-03-16T07:32:53.921Z,4.83
2019-03-16T07:35:23.575Z,6.67
2019-03-16T07:37:53.257Z,5.30
2019-03-16T07:40:22.902Z,5.60
2019-03-16T07:42:52.575Z,4.77
2019-03-16T07:45:22.345Z,5.13
2019-03-16T07:47:52.118Z,4.83
2019-03-16T07:50:21.996Z,5.77
2019-03-16T07:52:51.803Z,4.73
2019-03-16T07:55:21.492Z,4.40
2019-03-16T07:57:51.228Z,5.13
2019-03-16T08:00:21.049Z,4.97
2019-03-16T08:02:50.836Z,4.57
2019-03-16T08:05:20.523Z,4.60
2019-03-16T08:07:50.346Z,5.00
2019-03-16T08:10:20.238Z,5.37
2019-03-16T08:12:50.045Z,5.33
2019-03-16T08:15:19.726Z,4.20
2019-03-16T08:17:49.485Z,4.80
2019-03-16T08:20:19.237Z,5.50
2019-03-16T08:22:49.021Z,4.57
2019-03-16T08:25:18.750Z,4.63
2019-03-16T08:27:54.143Z,4.63
2019-03-16T08:30:19.907Z,4.63
2019-03-16T08:32:49.747Z,4.50
2019-03-16T08:35:19.496Z,5.07
2019-03-16T08:37:49.225Z,5.33
2019-03-16T08:40:19.046Z,4.40
2019-03-16T08:42:51.366Z,5.37
2019-03-16T08:45:20.309Z,5.10
2019-03-16T08:47:50.033Z,4.30
2019-03-16T08:50:19.772Z,4.23
2019-03-16T08:52:49.529Z,5.43
2019-03-16T08:55:19.314Z,3.80
2019-03-16T08:57:49.193Z,3.90
2019-03-16T09:00:18.954Z,4.53
2019-03-16T09:02:48.732Z,4.70
2019-03-16T09:05:18.468Z,4.60
2019-03-16T09:07:48.380Z,4.10
2019-03-16T09:10:18.297Z,5.83
2019-03-16T09:12:54.975Z,4.23
2019-03-16T09:15:20.057Z,5.03
2019-03-16T09:17:49.770Z,4.47
2019-03-16T09:20:19.430Z,4.47
2019-03-16T09:22:49.170Z,3.97
2019-03-16T09:25:18.895Z,4.47
2019-03-16T09:27:48.562Z,4.57
2019-03-16T09:30:18.727Z,3.70
2019-03-16T09:32:48.383Z,3.60
2019-03-16T09:35:18.079Z,4.97
2019-03-16T09:37:47.728Z,3.93
2019-03-16T09:40:17.385Z,4.50
2019-03-16T09:42:47.022Z,4.13
2019-03-16T09:45:16.759Z,4.07
2019-03-16T09:47:46.496Z,3.80
2019-03-16T09:50:16.338Z,3.90
2019-03-16T09:52:46.065Z,3.93
2019-03-16T09:55:15.729Z,3.50
2019-03-16T09:57:45.396Z,4.50
2019-03-16T10:00:16.406Z,4.23
2019-03-16T10:02:46.527Z,4.23
2019-03-16T10:05:16.260Z,4.33
2019-03-16T10:07:46.461Z,4.13
2019-03-16T10:10:16.407Z,5.00
2019-03-16T10:12:46.054Z,3.37
2019-03-16T10:15:16.064Z,4.50
2019-03-16T10:17:45.779Z,3.50
2019-03-16T10:20:15.659Z,3.17
2019-03-16T10:22:45.558Z,2.93
2019-03-16T10:25:15.606Z,4.10
2019-03-16T10:27:45.279Z,3.70
2019-03-16T10:30:15.438Z,4.10
2019-03-16T10:32:45.096Z,3.60
2019-03-16T10:35:14.986Z,3.67
2019-03-16T10:37:44.634Z,3.30
2019-03-16T10:40:14.919Z,4.03
2019-03-16T10:42:44.549Z,3.07
2019-03-16T10:45:14.226Z,3.43
2019-03-16T10:47:43.899Z,3.03
2019-03-16T10:50:14.658Z,3.37
2019-03-16T10:52:44.351Z,2.83
2019-03-16T10:55:14.023Z,3.13
2019-03-16T10:57:43.676Z,2.43
2019-03-16T11:00:15.630Z,2.93
2019-03-16T11:02:45.384Z,3.13
2019-03-16T11:05:15.148Z,2.53
2019-03-16T11:07:44.794Z,1.80
2019-03-16T11:10:14.868Z,2.20
2019-03-16T11:12:44.539Z,2.17
2019-03-16T11:15:16.952Z,2.13
2019-03-16T11:17:46.685Z,2.27
2019-03-16T11:20:17.779Z,2.60
2019-03-16T11:22:47.455Z,2.10
2019-03-16T11:25:17.236Z,2.63
2019-03-16T11:27:46.982Z,2.33
2019-03-16T11:30:17.778Z,2.73
2019-03-16T11:32:47.427Z,2.30
2019-03-16T11:35:17.067Z,2.90
2019-03-16T11:37:46.767Z,3.13
2019-03-16T11:40:19.726Z,2.23
2019-03-16T11:42:49.451Z,2.20
2019-03-16T11:45:19.083Z,2.90
2019-03-16T11:47:48.802Z,2.90
2019-03-16T11:50:18.509Z,2.03
2019-03-16T11:52:48.211Z,2.70
2019-03-16T11:55:17.931Z,2.23
2019-03-16T11:57:47.643Z,3.47
2019-03-16T12:00:17.462Z,2.73
2019-03-16T12:02:47.097Z,2.77
2019-03-16T12:05:16.837Z,3.20
2019-03-16T12:07:46.613Z,3.17
2019-03-16T12:10:16.732Z,2.17
2019-03-16T12:12:46.585Z,2.50
2019-03-16T12:15:16.305Z,3.03
2019-03-16T12:17:45.955Z,2.63
2019-03-16T12:20:18.961Z,3.07
2019-03-16T12:22:48.588Z,2.37
2019-03-16T12:25:18.326Z,2.93
2019-03-16T12:27:47.962Z,2.83
2019-03-16T12:30:17.729Z,3.70
2019-03-16T12:32:47.368Z,3.40
2019-03-16T12:35:18.998Z,2.93
2019-03-16T12:37:49.369Z,2.77
2019-03-16T12:40:19.028Z,2.90
2019-03-16T12:42:48.714Z,2.77
2019-03-16T12:45:21.626Z,2.70
2019-03-16T12:47:51.280Z,2.57
2019-03-16T12:50:21.009Z,2.87
2019-03-16T12:52:50.658Z,3.07
2019-03-16T12:55:20.697Z,2.63
2019-03-16T12:57:50.425Z,2.40
2019-03-16T13:00:20.580Z,3.07
2019-03-16T13:02:50.288Z,3.03
2019-03-16T13:05:20.180Z,2.70
2019-03-16T13:07:49.994Z,2.57
2019-03-16T13:10:20.426Z,8.60
2019-03-16T13:12:50.178Z,3.57
2019-03-16T13:15:19.839Z,3.03
2019-03-16T13:17:49.591Z,4.83
2019-03-16T13:20:19.301Z,3.00
2019-03-16T13:22:48.918Z,2.60
2019-03-16T13:25:18.795Z,2.27
2019-03-16T13:27:48.483Z,2.83
2019-03-16T13:30:19.552Z,2.20
2019-03-16T13:32:49.341Z,2.10
2019-03-16T13:35:18.971Z,1.83
2019-03-16T13:37:48.674Z,2.80
2019-03-16T13:40:18.771Z,2.40
2019-03-16T13:42:48.617Z,2.40
2019-03-16T13:45:18.846Z,3.20
2019-03-16T13:47:48.572Z,1.80
2019-03-16T13:50:21.051Z,2.10
2019-03-16T13:52:50.872Z,1.80
2019-03-16T13:55:20.540Z,1.87
2019-03-16T13:57:50.167Z,2.00
2019-03-16T14:00:23.195Z,1.80
2019-03-16T14:02:52.918Z,2.00
2019-03-16T14:05:22.638Z,1.93
2019-03-16T14:07:52.379Z,1.80
2019-03-16T14:10:30.546Z,2.10
2019-03-16T14:13:00.224Z,2.20
2019-03-16T14:15:29.991Z,1.93
2019-03-16T14:17:59.681Z,2.13
2019-03-16T14:20:29.685Z,2.20
2019-03-16T14:22:59.660Z,2.40
2019-03-16T14:25:31.759Z,2.53
2019-03-16T14:28:01.551Z,2.10
2019-03-16T14:30:41.142Z,2.33
2019-03-16T14:33:02.575Z,2.80
2019-03-16T14:35:33.231Z,2.70
2019-03-16T14:38:04.245Z,3.27
2019-03-16T14:40:34.031Z,3.07
2019-03-16T14:43:04.259Z,3.10
2019-03-16T14:45:34.976Z,3.30
2019-03-16T14:48:04.638Z,3.70
2019-03-16T14:50:34.386Z,3.70
2019-03-16T14:53:05.671Z,4.60
2019-03-16T14:55:35.516Z,3.70
2019-03-16T14:58:05.240Z,4.07
2019-03-16T15:00:38.614Z,4.23
2019-03-16T15:03:06.219Z,3.67
2019-03-16T15:05:35.867Z,4.00
2019-03-16T15:08:05.535Z,3.50
2019-03-16T15:10:35.174Z,3.13
2019-03-16T15:13:04.897Z,3.43
2019-03-16T15:15:34.587Z,3.30
2019-03-16T15:18:04.331Z,3.20
2019-03-16T15:20:33.990Z,4.03
2019-03-16T15:23:03.765Z,4.53
2019-03-16T15:25:33.394Z,7.33
2019-03-16T15:28:03.145Z,4.20
2019-03-16T15:30:33.057Z,4.67
2019-03-16T15:33:02.693Z,4.53
2019-03-16T15:35:32.439Z,5.17
2019-03-16T15:38:02.138Z,4.90
2019-03-16T15:40:31.850Z,13.87
2019-03-16T15:43:01.611Z,7.43
2019-03-16T15:45:32.265Z,5.73
2019-03-16T15:48:02.139Z,13.13
2019-03-16T15:50:31.851Z,5.77
2019-03-16T15:53:01.871Z,4.20
2019-03-16T15:55:31.536Z,4.03
2019-03-16T15:58:07.882Z,3.30
2019-03-16T16:00:33.016Z,3.83
2019-03-16T16:03:02.720Z,3.90
2019-03-16T16:05:32.501Z,4.50
2019-03-16T16:08:02.205Z,4.07
2019-03-16T16:10:31.875Z,4.40
2019-03-16T16:13:01.653Z,4.10
2019-03-16T16:15:31.351Z,4.53
2019-03-16T16:18:01.077Z,4.43
2019-03-16T16:20:30.762Z,5.70
2019-03-16T16:23:00.677Z,5.10
2019-03-16T16:25:30.447Z,5.03
2019-03-16T16:28:00.498Z,5.40
2019-03-16T16:30:30.191Z,5.90
2019-03-16T16:32:59.901Z,5.53
2019-03-16T16:35:29.689Z,5.50
2019-03-16T16:37:59.533Z,5.73
2019-03-16T16:40:32.626Z,5.90
2019-03-16T16:43:02.333Z,6.27
2019-03-16T16:45:38.137Z,6.37
2019-03-16T16:48:07.814Z,6.13
2019-03-16T16:50:37.646Z,6.27
2019-03-16T16:53:07.539Z,6.60
2019-03-16T16:55:37.405Z,6.03
2019-03-16T16:58:07.138Z,5.67
2019-03-16T17:00:37.086Z,6.43
2019-03-16T17:03:06.719Z,6.00
2019-03-16T17:05:36.554Z,6.10
2019-03-16T17:08:06.264Z,6.00
2019-03-16T17:10:35.920Z,5.97
2019-03-16T17:13:06.124Z,5.70
2019-03-16T17:15:35.820Z,4.97
2019-03-16T17:18:05.447Z,5.30
2019-03-16T17:20:35.122Z,5.10
2019-03-16T17:23:05.093Z,4.60
2019-03-16T17:25:34.913Z,4.43
2019-03-16T17:28:04.679Z,4.57
2019-03-16T17:30:35.463Z,4.40
2019-03-16T17:33:05.218Z,4.80
2019-03-16T17:35:35.085Z,5.83
2019-03-16T17:38:04.857Z,5.13
2019-03-16T17:40:34.685Z,5.10
2019-03-16T17:43:04.557Z,4.53
2019-03-16T17:45:34.323Z,4.40
2019-03-16T17:48:03.974Z,3.87
2019-03-16T17:50:33.777Z,4.03
2019-03-16T17:53:03.570Z,4.47
2019-03-16T17:55:33.400Z,4.03
2019-03-16T17:58:03.103Z,3.70
2019-03-16T18:00:32.848Z,4.00
2019-03-16T18:03:02.732Z,6.17
2019-03-16T18:05:33.365Z,4.63
2019-03-16T18:08:03.225Z,3.77
2019-03-16T18:10:33.003Z,4.60
2019-03-16T18:13:05.005Z,4.10
2019-03-16T18:15:34.722Z,4.43
2019-03-16T18:18:04.416Z,4.37
2019-03-16T18:20:34.134Z,4.30
2019-03-16T18:23:04.021Z,3.90
2019-03-16T18:25:33.795Z,4.17
2019-03-16T18:28:03.533Z,5.17
2019-03-16T18:30:33.315Z,4.07
2019-03-16T18:33:03.024Z,4.10
2019-03-16T18:35:32.721Z,4.27
2019-03-16T18:38:02.470Z,4.10
2019-03-16T18:40:32.153Z,3.53
2019-03-16T18:43:01.847Z,4.37
2019-03-16T18:45:32.919Z,4.03
2019-03-16T18:48:02.881Z,4.37
2019-03-16T18:50:32.563Z,4.00
2019-03-16T18:53:02.309Z,3.97
2019-03-16T18:55:31.972Z,4.80
2019-03-16T18:58:01.688Z,4.20
2019-03-16T19:00:31.459Z,3.77
2019-03-16T19:03:01.364Z,4.07
2019-03-16T19:05:31.115Z,3.70
2019-03-16T19:08:00.801Z,3.93
2019-03-16T19:10:30.520Z,4.00
2019-03-16T19:13:00.386Z,4.07
2019-03-16T19:15:30.451Z,4.03
2019-03-16T19:18:00.335Z,4.00
2019-03-16T19:20:30.048Z,4.07
2019-03-16T19:22:59.826Z,4.93
2019-03-16T19:25:29.651Z,4.40
2019-03-16T19:27:59.434Z,3.97
2019-03-16T19:30:29.134Z,5.07
2019-03-16T19:32:58.962Z,5.30
2019-03-16T19:35:28.785Z,4.10
2019-03-16T19:37:59.480Z,4.50
2019-03-16T19:40:29.187Z,4.63
2019-03-16T19:42:59.041Z,4.57
2019-03-16T19:45:28.913Z,4.87
2019-03-16T19:47:58.589Z,4.63
2019-03-16T19:50:28.419Z,4.50
2019-03-16T19:52:58.588Z,4.70
2019-03-16T19:55:28.484Z,5.50
2019-03-16T19:57:58.666Z,4.13
2019-03-16T20:00:28.611Z,5.07
2019-03-16T20:02:58.384Z,4.90
2019-03-16T20:05:28.475Z,4.60
2019-03-16T20:07:58.163Z,4.30
2019-03-16T20:10:27.980Z,5.03
2019-03-16T20:12:57.925Z,5.57
2019-03-16T20:15:28.076Z,4.00
2019-03-16T20:17:58.343Z,4.10
2019-03-16T20:20:28.517Z,4.40
2019-03-16T20:22:58.373Z,4.27
2019-03-16T20:25:28.439Z,4.33
2019-03-16T20:27:58.187Z,4.33
2019-03-16T20:30:27.874Z,4.60
2019-03-16T20:33:03.632Z,4.30
2019-03-16T20:35:28.977Z,4.77
2019-03-16T20:37:58.630Z,4.77
2019-03-16T20:40:28.583Z,4.43
2019-03-16T20:42:58.334Z,4.63
2019-03-16T20:45:28.206Z,4.30
2019-03-16T20:47:59.410Z,4.37
2019-03-16T20:50:29.257Z,4.03
2019-03-16T20:52:59.058Z,3.77
2019-03-16T20:55:28.806Z,4.00
2019-03-16T20:57:58.941Z,4.53
2019-03-16T21:00:28.752Z,3.70
2019-03-16T21:02:58.848Z,3.97
2019-03-16T21:05:29.286Z,4.33
2019-03-16T21:07:59.452Z,3.33
2019-03-16T21:10:29.199Z,3.63
2019-03-16T21:12:58.860Z,4.27
2019-03-16T21:15:28.692Z,3.33
2019-03-16T21:17:58.683Z,3.50
2019-03-16T21:20:28.471Z,3.63
2019-03-16T21:22:58.409Z,3.80
2019-03-16T21:25:28.461Z,2.93
2019-03-16T21:27:58.099Z,3.90
2019-03-16T21:30:27.752Z,4.43
2019-03-16T21:32:57.689Z,3.50
2019-03-16T21:35:27.404Z,3.60
2019-03-16T21:37:57.641Z,3.87
2019-03-16T21:40:27.289Z,3.57
2019-03-16T21:42:56.983Z,3.67
2019-03-16T21:45:26.716Z,3.40
2019-03-16T21:48:00.361Z,3.00
2019-03-16T21:50:27.936Z,3.90
2019-03-16T21:52:57.972Z,3.70
2019-03-16T21:55:27.666Z,3.53
2019-03-16T21:57:57.721Z,2.83
2019-03-16T22:00:27.752Z,2.73
2019-03-16T22:02:57.595Z,2.93
2019-03-16T22:05:27.236Z,3.53
2019-03-16T22:07:56.886Z,2.70
2019-03-16T22:10:27.539Z,3.10
2019-03-16T22:12:57.557Z,3.40
2019-03-16T22:15:27.272Z,3.07
2019-03-16T22:17:57.044Z,3.13
2019-03-16T22:20:27.695Z,2.73
2019-03-16T22:22:57.677Z,3.10
2019-03-16T22:25:33.336Z,3.10
2019-03-16T22:28:03.900Z,3.73
2019-03-16T22:30:33.596Z,3.23
2019-03-16T22:33:03.328Z,3.57
2019-03-16T22:35:33.025Z,3.43
2019-03-16T22:38:03.138Z,3.40
2019-03-16T22:40:33.043Z,4.10
2019-03-16T22:43:02.747Z,3.87
2019-03-16T22:45:32.417Z,3.43
2019-03-16T22:48:02.219Z,3.77
2019-03-16T22:50:31.931Z,3.40
2019-03-16T22:53:01.816Z,3.10
2019-03-16T22:55:31.491Z,3.03
2019-03-16T22:58:01.128Z,3.10
2019-03-16T23:00:37.245Z,4.23
2019-03-16T23:03:06.596Z,3.93
2019-03-16T23:05:36.327Z,3.50
2019-03-16T23:08:06.167Z,3.60
2019-03-16T23:10:35.882Z,3.07
2019-03-16T23:13:05.700Z,3.50
2019-03-16T23:15:35.412Z,3.93
2019-03-16T23:18:05.235Z,3.77
2019-03-16T23:20:34.959Z,3.90
2019-03-16T23:23:04.597Z,3.43
2019-03-16T23:25:34.371Z,3.70
2019-03-16T23:28:03.982Z,3.23
2019-03-16T23:30:33.706Z,4.20
2019-03-16T23:33:03.389Z,3.90
2019-03-16T23:35:33.135Z,3.70
2019-03-16T23:38:02.881Z,3.80
2019-03-16T23:40:32.591Z,3.50
2019-03-16T23:43:02.240Z,3.90
2019-03-16T23:45:31.915Z,3.90
2019-03-16T23:48:01.553Z,4.30
2019-03-16T23:50:31.405Z,4.80
2019-03-16T23:53:01.042Z,4.30
2019-03-16T23:55:30.709Z,4.03
2019-03-16T23:58:00.350Z,4.90
